createdAt,value
2023-02-22T00:00:43.955Z,68.73
2023-02-22T00:03:15.293Z,67.87
2023-02-22T00:05:47.007Z,67.87
2023-02-22T00:08:16.972Z,65.93
2023-02-22T00:10:46.247Z,65.37
2023-02-22T00:13:15.787Z,66.17
2023-02-22T00:15:44.346Z,66.40
2023-02-22T00:18:14.422Z,64.73
2023-02-22T00:20:42.314Z,62.77
2023-02-22T00:23:15.610Z,61.37
2023-02-22T00:25:43.421Z,61.17
2023-02-22T00:28:12.947Z,62.20
2023-02-22T00:30:43.632Z,60.40
2023-02-22T00:33:12.619Z,62.47
2023-02-22T00:35:40.632Z,63.07
2023-02-22T00:38:08.942Z,63.17
2023-02-22T00:40:36.788Z,59.73
2023-02-22T00:43:06.054Z,59.93
2023-02-22T00:45:40.224Z,61.27
2023-02-22T00:48:10.097Z,62.60
2023-02-22T00:50:38.554Z,61.27
2023-02-22T00:53:07.384Z,61.03
2023-02-22T00:55:36.478Z,59.80
2023-02-22T00:58:05.480Z,61.13
2023-02-22T01:00:35.082Z,59.80
2023-02-22T01:03:02.900Z,62.07
2023-02-22T01:05:33.176Z,58.77
2023-02-22T01:08:02.516Z,60.73
2023-02-22T01:10:32.022Z,59.90
2023-02-22T01:13:00.956Z,60.40
2023-02-22T01:15:31.657Z,61.20
2023-02-22T01:18:00.882Z,59.13
2023-02-22T01:20:30.242Z,61.97
2023-02-22T01:23:01.119Z,64.30
2023-02-22T01:25:30.612Z,64.70
2023-02-22T01:27:59.662Z,65.83
2023-02-22T01:30:29.860Z,64.20
2023-02-22T01:32:58.027Z,63.40
2023-02-22T01:35:29.062Z,65.87
2023-02-22T01:37:57.758Z,67.03
2023-02-22T01:40:29.609Z,66.23
2023-02-22T01:42:59.836Z,66.00
2023-02-22T01:48:15.850Z,61.73
2023-02-22T01:50:46.486Z,64.47
2023-02-22T01:53:17.738Z,65.80
2023-02-22T01:55:47.827Z,66.23
2023-02-22T01:58:17.919Z,65.00
2023-02-22T02:00:48.123Z,62.37
2023-02-22T02:03:20.050Z,64.13
2023-02-22T02:05:48.482Z,62.17
2023-02-22T02:08:24.408Z,64.53
2023-02-22T02:10:54.803Z,67.57
2023-02-22T02:13:22.809Z,66.33
2023-02-22T02:15:52.942Z,65.80
2023-02-22T02:18:20.738Z,66.63
2023-02-22T02:21:05.060Z,69.00
2023-02-22T02:24:00.595Z,66.20
2023-02-22T02:26:52.976Z,67.13
2023-02-22T02:29:57.298Z,64.97
2023-02-22T02:32:36.869Z,65.03
2023-02-22T02:35:06.221Z,65.43
2023-02-22T02:37:38.278Z,64.23
2023-02-22T02:40:13.307Z,65.00
2023-02-22T02:42:44.773Z,65.23
2023-02-22T02:45:15.412Z,63.10
2023-02-22T02:47:47.587Z,66.20
2023-02-22T02:50:18.375Z,64.53
2023-02-22T02:52:46.929Z,67.47
2023-02-22T02:55:15.415Z,66.33
2023-02-22T02:57:43.291Z,65.00
2023-02-22T03:00:22.516Z,65.30
2023-02-22T03:02:59.939Z,62.23
2023-02-22T03:05:39.884Z,61.03
2023-02-22T03:08:13.217Z,62.67
2023-02-22T03:10:50.338Z,61.77
2023-02-22T03:13:24.754Z,62.07
2023-02-22T03:15:57.080Z,57.87
2023-02-22T03:18:30.239Z,61.13
2023-02-22T03:21:02.445Z,59.27
2023-02-22T03:23:34.001Z,59.70
2023-02-22T03:26:05.001Z,60.10
2023-02-22T03:28:34.029Z,57.87
2023-02-22T03:31:05.430Z,57.57
2023-02-22T03:33:40.789Z,57.93
2023-02-22T03:36:12.883Z,57.70
2023-02-22T03:38:41.728Z,58.57
2023-02-22T03:41:10.399Z,58.60
2023-02-22T03:43:40.927Z,58.37
2023-02-22T03:46:11.087Z,58.97
2023-02-22T03:48:45.156Z,58.33
2023-02-22T03:51:16.685Z,58.97
2023-02-22T03:53:45.666Z,57.60
2023-02-22T03:56:16.463Z,56.83
2023-02-22T03:58:46.018Z,57.17
2023-02-22T04:01:14.468Z,55.37
2023-02-22T04:03:43.926Z,57.47
2023-02-22T04:06:11.888Z,58.20
2023-02-22T04:08:39.730Z,62.23
2023-02-22T04:11:07.513Z,59.77
2023-02-22T04:13:35.340Z,59.70
2023-02-22T04:16:03.154Z,59.27
2023-02-22T04:18:31.063Z,57.70
2023-02-22T04:21:00.214Z,62.23
2023-02-22T04:23:28.063Z,60.03
2023-02-22T04:25:56.078Z,59.60
2023-02-22T04:28:23.933Z,60.50
2023-02-22T04:30:51.891Z,58.97
2023-02-22T04:33:19.779Z,60.53
2023-02-22T04:35:47.644Z,58.73
2023-02-22T04:38:16.791Z,59.67
2023-02-22T04:40:44.635Z,60.17
2023-02-22T04:43:12.356Z,62.27
2023-02-22T04:48:19.662Z,61.30
2023-02-22T04:50:47.922Z,64.47
2023-02-22T04:53:17.143Z,63.07
2023-02-22T04:55:44.934Z,61.57
2023-02-22T04:58:12.755Z,61.03
2023-02-22T05:00:40.730Z,63.47
2023-02-22T05:03:08.961Z,61.73
2023-02-22T05:05:36.744Z,60.33
2023-02-22T05:08:04.689Z,59.20
2023-02-22T05:10:33.853Z,58.73
2023-02-22T05:13:03.837Z,59.17
2023-02-22T05:15:31.889Z,58.90
2023-02-22T05:18:00.710Z,60.17
2023-02-22T05:20:30.670Z,60.70
2023-02-22T05:22:59.114Z,58.80
2023-02-22T05:25:27.180Z,58.53
2023-02-22T05:27:58.498Z,59.23
2023-02-22T05:30:28.598Z,60.17
2023-02-22T05:32:56.372Z,57.80
2023-02-22T05:35:24.693Z,57.30
2023-02-22T05:37:52.584Z,59.30
2023-02-22T05:40:23.963Z,55.77
2023-02-22T05:42:52.198Z,54.60
2023-02-22T05:45:22.841Z,55.37
2023-02-22T05:47:50.773Z,55.43
2023-02-22T05:50:19.776Z,54.70
2023-02-22T05:52:48.665Z,53.73
2023-02-22T05:55:17.698Z,54.83
2023-02-22T05:57:45.751Z,53.63
2023-02-22T06:00:18.109Z,54.00
2023-02-22T06:02:47.434Z,54.03
2023-02-22T06:05:15.180Z,53.87
2023-02-22T06:07:42.906Z,51.87
2023-02-22T06:10:10.789Z,49.33
2023-02-22T06:12:38.515Z,49.60
2023-02-22T06:15:07.058Z,47.87
2023-02-22T06:17:34.895Z,49.03
2023-02-22T06:20:04.297Z,46.87
2023-02-22T06:22:32.088Z,46.50
2023-02-22T06:24:59.882Z,46.37
2023-02-22T06:27:27.696Z,46.90
2023-02-22T06:29:55.557Z,49.00
2023-02-22T06:32:23.426Z,47.87
2023-02-22T06:34:51.217Z,46.00
2023-02-22T06:37:20.512Z,48.43
2023-02-22T06:39:48.296Z,47.13
2023-02-22T06:42:16.160Z,48.47
2023-02-22T06:44:44.098Z,47.73
2023-02-22T06:47:11.893Z,49.30
2023-02-22T06:49:39.686Z,47.70
2023-02-22T06:52:08.248Z,47.27
2023-02-22T06:54:39.906Z,49.93
2023-02-22T06:57:08.512Z,48.20
2023-02-22T06:59:36.326Z,48.07
2023-02-22T07:02:04.235Z,49.67
2023-02-22T07:04:32.078Z,47.37
2023-02-22T07:06:59.841Z,47.73
2023-02-22T07:09:27.642Z,47.33
2023-02-22T07:11:57.027Z,46.17
2023-02-22T07:14:24.997Z,48.77
2023-02-22T07:16:52.727Z,47.77
2023-02-22T07:19:20.747Z,46.57
2023-02-22T07:21:49.138Z,46.77
2023-02-22T07:24:17.901Z,46.47
2023-02-22T07:26:45.761Z,44.37
2023-02-22T07:29:14.936Z,44.40
2023-02-22T07:31:42.741Z,43.47
2023-02-22T07:34:10.529Z,42.57
2023-02-22T07:36:38.351Z,42.53
2023-02-22T07:39:08.717Z,42.23
2023-02-22T07:41:36.652Z,41.37
2023-02-22T07:44:04.571Z,39.77
2023-02-22T07:46:33.931Z,37.87
2023-02-22T07:49:01.754Z,35.23
2023-02-22T07:51:29.576Z,35.57
2023-02-22T07:53:57.458Z,33.80
2023-02-22T07:56:25.219Z,32.60
2023-02-22T07:58:53.673Z,30.37
2023-02-22T08:01:21.563Z,34.20
2023-02-22T08:03:50.872Z,33.10
2023-02-22T08:06:18.922Z,32.47
2023-02-22T08:08:46.674Z,32.10
2023-02-22T08:11:14.785Z,29.87
2023-02-22T08:13:42.675Z,30.77
2023-02-22T08:16:10.422Z,30.13
2023-02-22T08:18:41.029Z,28.00
2023-02-22T08:21:10.238Z,28.93
2023-02-22T08:23:38.941Z,29.80
2023-02-22T08:26:08.466Z,28.67
2023-02-22T08:28:36.508Z,28.47
2023-02-22T08:31:07.232Z,30.10
2023-02-22T08:33:35.570Z,29.83
2023-02-22T08:36:03.521Z,31.43
2023-02-22T08:38:34.039Z,31.67
2023-02-22T08:41:01.920Z,30.57
2023-02-22T08:43:30.047Z,30.87
2023-02-22T08:45:58.025Z,32.27
2023-02-22T08:48:27.205Z,33.63
2023-02-22T08:50:55.024Z,32.07
2023-02-22T08:53:22.929Z,33.13
2023-02-22T08:55:53.488Z,32.00
2023-02-22T08:58:21.273Z,33.90
2023-02-22T09:00:51.222Z,34.60
2023-02-22T09:03:19.165Z,32.20
2023-02-22T09:05:47.010Z,35.23
2023-02-22T09:08:14.877Z,35.13
2023-02-22T09:10:42.845Z,33.47
2023-02-22T09:13:12.624Z,34.60
2023-02-22T09:15:40.761Z,34.20
2023-02-22T09:18:14.658Z,34.13
2023-02-22T09:20:42.991Z,33.40
2023-02-22T09:23:10.840Z,32.63
2023-02-22T09:25:40.877Z,31.43
2023-02-22T09:28:09.221Z,31.80
2023-02-22T09:30:40.799Z,31.20
2023-02-22T09:33:13.402Z,31.57
2023-02-22T09:35:46.293Z,29.90
2023-02-22T09:38:15.791Z,32.03
2023-02-22T09:40:49.448Z,33.00
2023-02-22T09:43:28.571Z,32.27
2023-02-22T09:46:12.067Z,33.90
2023-02-22T09:48:51.537Z,33.50
2023-02-22T09:51:20.680Z,31.13
2023-02-22T09:53:50.830Z,34.13
2023-02-22T09:56:21.282Z,33.80
2023-02-22T09:58:52.283Z,32.87
2023-02-22T10:01:28.012Z,33.03
2023-02-22T10:04:01.470Z,34.83
2023-02-22T10:06:29.679Z,33.90
2023-02-22T10:09:00.711Z,33.87
2023-02-22T10:11:40.558Z,33.73
2023-02-22T10:14:44.104Z,35.47
2023-02-22T10:17:19.351Z,35.03
2023-02-22T10:19:54.984Z,36.90
2023-02-22T10:22:44.425Z,35.30
2023-02-22T10:25:14.137Z,35.20
2023-02-22T10:27:47.867Z,35.43
2023-02-22T10:30:27.876Z,35.93
2023-02-22T10:33:02.564Z,34.77
2023-02-22T10:35:32.173Z,35.40
2023-02-22T10:38:05.408Z,37.03
2023-02-22T10:40:33.535Z,37.17
2023-02-22T10:43:05.551Z,37.73
2023-02-22T10:45:37.110Z,36.77
2023-02-22T10:48:11.499Z,36.93
2023-02-22T10:50:40.960Z,37.87
2023-02-22T10:53:09.372Z,37.13
2023-02-22T10:55:38.016Z,37.10
2023-02-22T10:58:07.718Z,37.20
2023-02-22T11:00:37.573Z,36.63
2023-02-22T11:03:16.310Z,36.93
2023-02-22T11:05:44.234Z,36.20
2023-02-22T11:08:17.388Z,33.97
2023-02-22T11:10:45.407Z,37.27
2023-02-22T11:13:25.831Z,38.33
2023-02-22T11:15:54.202Z,37.50
2023-02-22T11:18:29.563Z,36.43
2023-02-22T11:21:01.999Z,35.77
2023-02-22T11:23:30.336Z,33.50
2023-02-22T11:26:08.374Z,36.10
2023-02-22T11:28:37.214Z,36.27
2023-02-22T11:31:14.564Z,37.33
2023-02-22T11:33:52.588Z,36.63
2023-02-22T11:36:37.887Z,34.40
2023-02-22T11:39:11.516Z,35.67
2023-02-22T11:41:39.449Z,36.23
2023-02-22T11:44:21.561Z,33.90
2023-02-22T11:46:49.458Z,34.70
2023-02-22T11:49:20.078Z,34.07
2023-02-22T11:52:01.461Z,35.57
2023-02-22T11:54:43.438Z,35.60
2023-02-22T11:57:22.217Z,36.83
2023-02-22T12:00:09.723Z,35.67
2023-02-22T12:02:56.975Z,37.03
2023-02-22T12:05:40.598Z,35.10
2023-02-22T12:08:19.677Z,35.87
2023-02-22T12:10:56.458Z,34.67
2023-02-22T12:13:32.946Z,35.43
2023-02-22T12:16:09.948Z,33.97
2023-02-22T12:18:42.248Z,35.67
2023-02-22T12:21:16.882Z,32.87
2023-02-22T12:23:47.039Z,35.17
2023-02-22T12:26:20.154Z,35.67
2023-02-22T12:28:52.805Z,34.97
2023-02-22T12:31:23.708Z,34.70
2023-02-22T12:33:56.536Z,36.50
2023-02-22T12:36:32.878Z,35.17
2023-02-22T12:39:07.463Z,33.83
2023-02-22T12:41:38.798Z,34.00
2023-02-22T12:44:10.307Z,36.57
2023-02-22T12:46:46.601Z,36.87
2023-02-22T12:49:18.716Z,35.23
2023-02-22T12:51:53.110Z,36.53
2023-02-22T12:54:26.652Z,36.53
2023-02-22T12:56:57.376Z,38.73
2023-02-22T12:59:30.846Z,37.87
2023-02-22T13:02:02.038Z,38.00
2023-02-22T13:04:31.923Z,39.97
2023-02-22T13:07:18.136Z,39.13
2023-02-22T13:09:57.532Z,38.50
2023-02-22T13:12:29.821Z,38.23
2023-02-22T13:15:03.900Z,35.97
2023-02-22T13:17:39.766Z,37.03
2023-02-22T13:20:11.645Z,38.40
2023-02-22T13:22:45.174Z,37.93
2023-02-22T13:25:16.552Z,35.63
2023-02-22T13:27:47.685Z,35.90
2023-02-22T13:30:20.204Z,36.97
2023-02-22T13:33:05.200Z,36.47
2023-02-22T13:35:55.347Z,35.03
2023-02-22T13:38:52.605Z,36.47
2023-02-22T13:41:30.928Z,34.70
2023-02-22T13:44:20.500Z,34.47
2023-02-22T13:49:51.501Z,35.10
2023-02-22T13:52:21.797Z,35.37
2023-02-22T13:54:54.614Z,34.60
2023-02-22T13:57:24.973Z,35.90
2023-02-22T14:00:22.844Z,35.03
2023-02-22T14:03:00.936Z,35.70
2023-02-22T14:05:53.224Z,37.70
2023-02-22T14:08:43.016Z,36.27
2023-02-22T14:11:56.787Z,36.40
2023-02-22T14:14:26.121Z,34.53
2023-02-22T14:17:18.927Z,34.77
2023-02-22T14:20:14.777Z,36.60
2023-02-22T14:22:43.505Z,36.53
2023-02-22T14:25:43.971Z,35.03
2023-02-22T14:28:42.895Z,36.17
2023-02-22T14:31:29.300Z,37.40
2023-02-22T14:34:06.196Z,35.03
2023-02-22T14:36:36.717Z,35.70
2023-02-22T14:39:10.568Z,36.47
2023-02-22T14:41:39.712Z,36.27
2023-02-22T14:44:12.851Z,35.83
2023-02-22T14:46:43.722Z,35.07
2023-02-22T14:49:18.934Z,35.43
2023-02-22T14:51:55.899Z,34.50
2023-02-22T14:54:27.974Z,33.17
2023-02-22T14:57:12.101Z,34.13
2023-02-22T14:59:51.366Z,35.13
2023-02-22T15:02:22.762Z,34.90
2023-02-22T15:04:54.560Z,33.80
2023-02-22T15:07:27.278Z,34.10
2023-02-22T15:10:17.800Z,32.30
2023-02-22T15:12:53.630Z,33.50
2023-02-22T15:15:22.866Z,34.20
2023-02-22T15:17:56.320Z,34.70
2023-02-22T15:20:25.204Z,33.83
2023-02-22T15:22:53.371Z,33.93
2023-02-22T15:25:26.747Z,33.77
2023-02-22T15:27:54.606Z,33.47
2023-02-22T15:30:26.814Z,34.43
2023-02-22T15:33:04.090Z,35.10
2023-02-22T15:35:33.900Z,33.70
2023-02-22T15:38:03.690Z,34.43
2023-02-22T15:40:33.276Z,34.60
2023-02-22T15:43:02.544Z,34.30
2023-02-22T15:45:32.329Z,36.07
2023-02-22T15:48:01.685Z,35.47
2023-02-22T15:50:32.290Z,36.07
2023-02-22T15:53:03.012Z,34.70
2023-02-22T15:55:33.065Z,34.80
2023-02-22T15:58:02.755Z,35.40
2023-02-22T16:00:36.270Z,35.40
2023-02-22T16:03:06.248Z,36.60
2023-02-22T16:05:39.572Z,36.87
2023-02-22T16:08:16.037Z,34.67
2023-02-22T16:10:50.148Z,35.07
2023-02-22T16:13:31.658Z,34.17
2023-02-22T16:16:02.865Z,33.47
2023-02-22T16:18:34.920Z,33.53
2023-02-22T16:21:06.320Z,32.83
2023-02-22T16:23:44.932Z,33.83
2023-02-22T16:26:24.870Z,33.10
2023-02-22T16:28:54.340Z,31.93
2023-02-22T16:31:22.945Z,34.13
2023-02-22T16:33:53.005Z,31.93
2023-02-22T16:36:21.393Z,31.60
2023-02-22T16:38:49.811Z,32.93
2023-02-22T16:41:19.845Z,33.00
2023-02-22T16:43:50.781Z,32.20
2023-02-22T16:46:20.111Z,32.83
2023-02-22T16:48:48.195Z,34.00
2023-02-22T16:51:22.329Z,34.03
2023-02-22T16:53:50.904Z,34.60
2023-02-22T16:56:21.194Z,34.10
2023-02-22T16:58:52.753Z,35.70
2023-02-22T17:01:23.377Z,38.00
2023-02-22T17:03:53.914Z,39.23
2023-02-22T17:06:23.606Z,40.67
2023-02-22T17:08:52.677Z,39.70
2023-02-22T17:11:20.728Z,37.17
2023-02-22T17:13:51.790Z,37.87
2023-02-22T17:16:19.915Z,38.70
2023-02-22T17:18:48.125Z,38.60
2023-02-22T17:21:16.671Z,37.07
2023-02-22T17:23:47.034Z,37.00
2023-02-22T17:26:15.799Z,36.63
2023-02-22T17:28:44.272Z,38.60
2023-02-22T17:31:20.797Z,37.87
2023-02-22T17:33:48.579Z,40.37
2023-02-22T17:36:16.761Z,41.60
2023-02-22T17:38:46.312Z,42.57
2023-02-22T17:41:14.100Z,44.97
2023-02-22T17:43:41.890Z,48.30
2023-02-22T17:46:09.941Z,49.07
2023-02-22T17:48:38.274Z,48.40
2023-02-22T17:51:07.218Z,48.03
2023-02-22T17:53:35.500Z,49.27
2023-02-22T17:56:08.503Z,45.93
2023-02-22T17:58:36.547Z,42.67
2023-02-22T18:01:05.116Z,42.00
2023-02-22T18:03:33.338Z,42.37
2023-02-22T18:06:01.999Z,40.77
2023-02-22T18:08:31.204Z,40.53
2023-02-22T18:11:02.081Z,41.50
2023-02-22T18:13:31.454Z,40.80
2023-02-22T18:16:00.612Z,38.50
2023-02-22T18:18:28.659Z,41.63
2023-02-22T18:20:59.679Z,40.90
2023-02-22T18:23:28.944Z,38.13
2023-02-22T18:26:10.181Z,39.50
2023-02-22T18:28:41.055Z,37.00
2023-02-22T18:31:10.294Z,37.73
2023-02-22T18:33:38.223Z,37.43
2023-02-22T18:36:06.935Z,38.83
2023-02-22T18:38:34.775Z,38.17
2023-02-22T18:41:03.480Z,38.53
2023-02-22T18:43:34.146Z,37.67
2023-02-22T18:46:12.420Z,37.30
2023-02-22T18:48:40.620Z,37.93
2023-02-22T18:51:10.320Z,39.97
2023-02-22T18:53:38.656Z,38.73
2023-02-22T18:56:07.226Z,39.57
2023-02-22T18:58:35.109Z,40.67
2023-02-22T19:01:03.349Z,40.10
2023-02-22T19:03:33.264Z,38.37
2023-02-22T19:06:02.928Z,39.90
2023-02-22T19:08:32.575Z,38.73
2023-02-22T19:11:06.906Z,38.10
2023-02-22T19:13:36.105Z,39.07
2023-02-22T19:16:04.810Z,38.63
2023-02-22T19:18:34.117Z,38.67
2023-02-22T19:21:03.997Z,39.30
2023-02-22T19:23:34.397Z,40.57
2023-02-22T19:26:03.531Z,39.53
2023-02-22T19:28:34.157Z,42.97
2023-02-22T19:31:12.520Z,44.87
2023-02-22T19:33:41.996Z,43.40
2023-02-22T19:36:10.370Z,42.80
2023-02-22T19:38:38.413Z,43.63
2023-02-22T19:41:10.726Z,43.00
2023-02-22T19:43:38.486Z,42.03
2023-02-22T19:46:06.895Z,41.87
2023-02-22T19:48:35.058Z,43.03
2023-02-22T19:51:06.304Z,43.17
2023-02-22T19:53:34.360Z,42.80
2023-02-22T19:56:05.668Z,42.27
2023-02-22T19:58:36.641Z,43.47
2023-02-22T20:01:12.174Z,43.47
2023-02-22T20:03:41.014Z,43.77
2023-02-22T20:06:10.663Z,45.67
2023-02-22T20:08:42.177Z,44.53
2023-02-22T20:11:10.748Z,45.37
2023-02-22T20:13:38.754Z,43.90
2023-02-22T20:27:28.861Z,34.90
2023-02-22T20:29:56.651Z,37.87
2023-02-22T20:32:24.626Z,38.73
2023-02-22T20:34:52.731Z,38.90
2023-02-22T20:37:21.610Z,41.30
2023-02-22T20:39:51.155Z,42.73
2023-02-22T20:42:19.106Z,41.53
2023-02-22T20:44:50.579Z,42.87
2023-02-22T20:47:18.478Z,42.17
2023-02-22T20:49:46.289Z,42.93
2023-02-22T20:52:14.024Z,43.50
2023-02-22T20:54:41.918Z,45.23
2023-02-22T20:57:09.831Z,45.03
2023-02-22T20:59:37.652Z,45.17
2023-02-22T21:02:06.873Z,46.40
2023-02-22T21:04:34.691Z,45.57
2023-02-22T21:07:03.079Z,45.43
2023-02-22T21:09:32.433Z,43.73
2023-02-22T21:12:00.170Z,45.17
2023-02-22T21:14:29.542Z,46.73
2023-02-22T21:16:57.632Z,45.60
2023-02-22T21:19:26.745Z,46.27
2023-02-22T21:21:55.758Z,47.47
2023-02-22T21:24:24.578Z,45.73
2023-02-22T21:26:53.112Z,45.77
2023-02-22T21:29:21.049Z,44.60
2023-02-22T21:31:48.986Z,47.83
2023-02-22T21:34:17.565Z,48.07
2023-02-22T21:36:47.535Z,47.40
2023-02-22T21:39:19.301Z,45.93
2023-02-22T21:41:48.440Z,47.33
2023-02-22T21:44:16.727Z,47.07
2023-02-22T21:46:48.787Z,47.63
2023-02-22T21:49:16.838Z,48.53
2023-02-22T21:51:46.130Z,45.80
2023-02-22T21:54:13.946Z,47.83
2023-02-22T21:56:43.423Z,50.13
2023-02-22T21:59:13.277Z,48.83
2023-02-22T22:01:46.962Z,48.93
2023-02-22T22:04:18.820Z,49.23
2023-02-22T22:06:50.079Z,47.77
2023-02-22T22:09:22.232Z,47.27
2023-02-22T22:11:51.339Z,48.00
2023-02-22T22:14:19.763Z,49.60
2023-02-22T22:16:48.791Z,50.80
2023-02-22T22:19:16.808Z,50.87
2023-02-22T22:21:46.638Z,47.80
2023-02-22T22:24:15.898Z,48.80
2023-02-22T22:26:44.376Z,46.73
2023-02-22T22:29:12.263Z,45.90
2023-02-22T22:31:40.241Z,46.23
2023-02-22T22:34:08.089Z,45.83
2023-02-22T22:36:36.425Z,44.70
2023-02-22T22:39:12.924Z,43.83
2023-02-22T22:41:44.146Z,43.93
2023-02-22T22:44:12.399Z,44.67
2023-02-22T22:46:40.956Z,43.67
2023-02-22T22:49:09.811Z,45.00
2023-02-22T22:51:38.229Z,43.50
2023-02-22T22:54:06.739Z,41.60
2023-02-22T22:56:36.333Z,41.80
2023-02-22T22:59:09.162Z,39.30
2023-02-22T23:01:39.308Z,40.57
2023-02-22T23:04:09.380Z,41.00
2023-02-22T23:06:40.031Z,39.50
2023-02-22T23:09:11.433Z,41.33
2023-02-22T23:11:44.337Z,40.70
2023-02-22T23:14:16.083Z,40.40
2023-02-22T23:16:45.376Z,39.40
2023-02-22T23:19:15.451Z,38.60
2023-02-22T23:21:44.230Z,39.13
2023-02-22T23:24:15.170Z,38.30
2023-02-22T23:26:48.340Z,39.90
2023-02-22T23:29:18.595Z,38.73
2023-02-22T23:31:48.480Z,38.47
2023-02-22T23:34:17.012Z,39.23
2023-02-22T23:36:45.188Z,39.40
2023-02-22T23:39:14.220Z,37.83
2023-02-22T23:41:42.423Z,40.03
2023-02-22T23:44:13.951Z,37.77
2023-02-22T23:46:44.631Z,38.23
2023-02-22T23:49:15.399Z,38.57
2023-02-22T23:51:44.562Z,37.53
2023-02-22T23:54:14.465Z,38.00
2023-02-22T23:56:53.615Z,38.67
2023-02-22T23:59:23.568Z,39.07
